KGOV

Grayling AAF Airport

Grayling, Michigan, USA
METAR KGOV 170058Z AUTO 24005KT 10SM CLR 00/M02 A2988 RMK AO2 LTG DSNT N SLP139 T00011016 PNO $
Observed Flight Rules
Dec-17 @ 00:58 UTC (33 minutes ago) Visual Flight Rules
Wind Visibility Clouds
240° at 5 knots 10 miles
  • Clear skies
Temperatures Readings
Current 0°C / 32°F
Dewpoint -2°C / 28°F
Humidity 87%
Altimeter 29.88" Hg
Pressure 1013.9 hPa
Elevation 353
METAR KGOV 170058Z AUTO 24005KT 10SM CLR 00/M02 A2988 RMK AO2 LTG DSNT N SLP139 T00011016 PNO $
Observed Flight Rules
Dec-17 @ 00:58 UTC
(33 minutes ago)
VFR
Wind Visibility
240° at 5 knots 10 miles
Clouds
  • Clear skies
Temperature Dewpoint
0°C / 32°F -2°C / 28°F
Humidity Altimeter Pressure
87% 29.88" Hg 1013.9 hPa